sensor_id;sensor_type;location;lat;lon;timestamp;pressure;altitude;pressure_sealevel;temperature;humidity
16793;BME280;8513;42.662;23.350;2022-08-01T00:00:33;94812.81;;;21.24;43.42
16793;BME280;8513;42.662;23.350;2022-08-01T00:02:59;94803.91;;;21.12;43.74
16793;BME280;8513;42.662;23.350;2022-08-01T00:05:25;94795.00;;;21.18;43.59
16793;BME280;8513;42.662;23.350;2022-08-01T00:07:50;94807.84;;;21.09;43.64
16793;BME280;8513;42.662;23.350;2022-08-01T00:10:16;94797.66;;;21.00;43.65
16793;BME280;8513;42.662;23.350;2022-08-01T00:12:42;94793.53;;;21.04;43.68
16793;BME280;8513;42.662;23.350;2022-08-01T00:15:10;94799.69;;;21.04;43.50
16793;BME280;8513;42.662;23.350;2022-08-01T00:17:37;94801.16;;;21.00;43.47
16793;BME280;8513;42.662;23.350;2022-08-01T00:20:05;94799.28;;;21.01;43.39
16793;BME280;8513;42.662;23.350;2022-08-01T00:22:32;94798.88;;;21.04;43.08
16793;BME280;8513;42.662;23.350;2022-08-01T00:24:57;94805.91;;;20.98;42.99
16793;BME280;8513;42.662;23.350;2022-08-01T00:27:23;94807.38;;;20.94;43.09
16793;BME280;8513;42.662;23.350;2022-08-01T00:29:48;94808.84;;;20.90;42.97
16793;BME280;8513;42.662;23.350;2022-08-01T00:32:14;94811.31;;;20.91;42.43
16793;BME280;8513;42.662;23.350;2022-08-01T00:34:39;94805.31;;;20.96;42.90
16793;BME280;8513;42.662;23.350;2022-08-01T00:37:04;94806.50;;;21.00;43.82
16793;BME280;8513;42.662;23.350;2022-08-01T00:39:30;94811.38;;;20.85;45.53
16793;BME280;8513;42.662;23.350;2022-08-01T00:41:57;94814.19;;;20.72;47.20
16793;BME280;8513;42.662;23.350;2022-08-01T00:44:23;94811.63;;;20.58;48.05
16793;BME280;8513;42.662;23.350;2022-08-01T00:46:48;94820.84;;;20.62;48.17
16793;BME280;8513;42.662;23.350;2022-08-01T00:49:14;94821.91;;;20.30;48.97
16793;BME280;8513;42.662;23.350;2022-08-01T00:51:39;94814.63;;;20.37;48.74
16793;BME280;8513;42.662;23.350;2022-08-01T00:54:04;94822.78;;;20.48;48.45
16793;BME280;8513;42.662;23.350;2022-08-01T00:56:30;94815.03;;;20.40;48.64
16793;BME280;8513;42.662;23.350;2022-08-01T00:58:56;94817.97;;;20.32;49.22
16793;BME280;8513;42.662;23.350;2022-08-01T01:01:22;94814.75;;;20.23;49.38
16793;BME280;8513;42.662;23.350;2022-08-01T01:03:52;94806.56;;;20.18;49.36
16793;BME280;8513;42.662;23.350;2022-08-01T01:09:06;94792.88;;;20.08;49.94
16793;BME280;8513;42.662;23.350;2022-08-01T01:11:40;94795.94;;;20.12;49.97
16793;BME280;8513;42.662;23.350;2022-08-01T01:14:16;94792.47;;;20.04;50.12
16793;BME280;8513;42.662;23.350;2022-08-01T01:16:46;94787.50;;;19.83;50.88
16793;BME280;8513;42.662;23.350;2022-08-01T01:19:16;94789.53;;;19.88;50.73
16793;BME280;8513;42.662;23.350;2022-08-01T01:27:49;94790.41;;;19.75;51.21
16793;BME280;8513;42.662;23.350;2022-08-01T01:30:16;94783.69;;;19.59;51.53
16793;BME280;8513;42.662;23.350;2022-08-01T01:32:48;94781.41;;;19.69;51.10
16793;BME280;8513;42.662;23.350;2022-08-01T01:35:23;94777.47;;;19.78;50.27
16793;BME280;8513;42.662;23.350;2022-08-01T01:37:53;94771.53;;;19.76;49.80
16793;BME280;8513;42.662;23.350;2022-08-01T01:40:21;94767.81;;;19.77;49.35
16793;BME280;8513;42.662;23.350;2022-08-01T01:42:49;94767.00;;;19.83;48.67
16793;BME280;8513;42.662;23.350;2022-08-01T01:45:17;94767.03;;;20.02;47.60
16793;BME280;8513;42.662;23.350;2022-08-01T01:47:43;94761.59;;;19.90;47.03
16793;BME280;8513;42.662;23.350;2022-08-01T01:50:11;94758.94;;;19.90;46.52
16793;BME280;8513;42.662;23.350;2022-08-01T01:52:39;94765.84;;;19.98;46.03
16793;BME280;8513;42.662;23.350;2022-08-01T01:55:06;94761.38;;;19.92;47.09
16793;BME280;8513;42.662;23.350;2022-08-01T01:57:37;94752.97;;;19.88;45.64
16793;BME280;8513;42.662;23.350;2022-08-01T02:00:04;94763.22;;;19.91;45.12
16793;BME280;8513;42.662;23.350;2022-08-01T02:02:33;94758.50;;;19.93;43.99
16793;BME280;8513;42.662;23.350;2022-08-01T02:04:59;94753.97;;;19.94;43.70
16793;BME280;8513;42.662;23.350;2022-08-01T02:07:26;94743.72;;;19.91;42.40
16793;BME280;8513;42.662;23.350;2022-08-01T02:09:54;94751.56;;;19.86;42.99
16793;BME280;8513;42.662;23.350;2022-08-01T02:12:20;94747.44;;;19.90;42.03
16793;BME280;8513;42.662;23.350;2022-08-01T02:14:46;94738.78;;;19.94;39.67
16793;BME280;8513;42.662;23.350;2022-08-01T02:17:16;94746.97;;;19.99;39.37
16793;BME280;8513;42.662;23.350;2022-08-01T02:19:42;94742.44;;;19.68;41.19
16793;BME280;8513;42.662;23.350;2022-08-01T02:22:11;94742.84;;;19.65;42.24
16793;BME280;8513;42.662;23.350;2022-08-01T02:24:55;94746.31;;;19.72;42.28
16793;BME280;8513;42.662;23.350;2022-08-01T02:27:31;94746.22;;;19.86;40.15
16793;BME280;8513;42.662;23.350;2022-08-01T02:30:05;94733.81;;;19.73;41.28
16793;BME280;8513;42.662;23.350;2022-08-01T02:32:36;94747.56;;;19.63;42.53
16793;BME280;8513;42.662;23.350;2022-08-01T02:35:05;94746.53;;;19.64;42.90
16793;BME280;8513;42.662;23.350;2022-08-01T02:37:34;94747.56;;;19.63;43.10
16793;BME280;8513;42.662;23.350;2022-08-01T02:40:02;94756.44;;;19.57;43.40
16793;BME280;8513;42.662;23.350;2022-08-01T02:42:31;94757.28;;;19.51;43.20
16793;BME280;8513;42.662;23.350;2022-08-01T02:44:57;94748.47;;;19.50;43.42
16793;BME280;8513;42.662;23.350;2022-08-01T02:47:25;94750.94;;;19.52;44.62
16793;BME280;8513;42.662;23.350;2022-08-01T02:49:54;94753.63;;;19.45;46.04
16793;BME280;8513;42.662;23.350;2022-08-01T02:52:23;94747.59;;;19.25;47.15
16793;BME280;8513;42.662;23.350;2022-08-01T02:54:51;94743.69;;;19.21;47.28
16793;BME280;8513;42.662;23.350;2022-08-01T02:57:20;94751.44;;;19.35;47.48
16793;BME280;8513;42.662;23.350;2022-08-01T02:59:47;94747.97;;;19.28;47.77
16793;BME280;8513;42.662;23.350;2022-08-01T03:02:16;94748.41;;;19.18;48.22
16793;BME280;8513;42.662;23.350;2022-08-01T03:04:43;94741.13;;;18.94;48.89
16793;BME280;8513;42.662;23.350;2022-08-01T03:07:11;94749.50;;;19.04;48.68
16793;BME280;8513;42.662;23.350;2022-08-01T03:09:40;94752.13;;;19.11;47.76
16793;BME280;8513;42.662;23.350;2022-08-01T03:12:11;94756.25;;;19.07;48.41
16793;BME280;8513;42.662;23.350;2022-08-01T03:14:40;94750.94;;;19.07;48.18
16793;BME280;8513;42.662;23.350;2022-08-01T03:17:08;94750.31;;;19.05;48.43
16793;BME280;8513;42.662;23.350;2022-08-01T03:19:35;94754.19;;;19.09;48.42
16793;BME280;8513;42.662;23.350;2022-08-01T03:22:05;94751.31;;;19.17;48.63
16793;BME280;8513;42.662;23.350;2022-08-01T03:24:32;94746.84;;;19.04;48.86
16793;BME280;8513;42.662;23.350;2022-08-01T03:26:58;94752.81;;;18.93;49.66
16793;BME280;8513;42.662;23.350;2022-08-01T03:29:26;94754.69;;;18.92;50.03
16793;BME280;8513;42.662;23.350;2022-08-01T03:31:52;94753.63;;;18.93;50.04
16793;BME280;8513;42.662;23.350;2022-08-01T03:34:18;94755.44;;;19.00;49.87
16793;BME280;8513;42.662;23.350;2022-08-01T03:40:00;94760.00;;;18.92;50.43
16793;BME280;8513;42.662;23.350;2022-08-01T03:43:02;94759.16;;;18.99;50.19
16793;BME280;8513;42.662;23.350;2022-08-01T03:45:36;94756.06;;;19.02;50.00
16793;BME280;8513;42.662;23.350;2022-08-01T03:48:09;94765.69;;;19.03;50.03
16793;BME280;8513;42.662;23.350;2022-08-01T03:50:39;94759.72;;;19.07;49.54
16793;BME280;8513;42.662;23.350;2022-08-01T03:53:08;94755.63;;;19.05;50.10
16793;BME280;8513;42.662;23.350;2022-08-01T03:55:35;94753.63;;;18.93;50.41
16793;BME280;8513;42.662;23.350;2022-08-01T03:58:03;94764.25;;;19.07;50.14
16793;BME280;8513;42.662;23.350;2022-08-01T04:00:30;94760.34;;;19.09;50.00
16793;BME280;8513;42.662;23.350;2022-08-01T04:02:56;94759.34;;;19.04;50.07
16793;BME280;8513;42.662;23.350;2022-08-01T04:05:22;94755.44;;;19.06;50.45
16793;BME280;8513;42.662;23.350;2022-08-01T04:07:49;94765.06;;;19.14;50.48
16793;BME280;8513;42.662;23.350;2022-08-01T04:10:24;94765.91;;;19.01;51.31
16793;BME280;8513;42.662;23.350;2022-08-01T04:12:50;94769.56;;;19.07;51.14
16793;BME280;8513;42.662;23.350;2022-08-01T04:15:16;94767.72;;;19.07;51.16
16793;BME280;8513;42.662;23.350;2022-08-01T04:17:42;94763.59;;;19.18;50.94
16793;BME280;8513;42.662;23.350;2022-08-01T04:20:08;94771.38;;;19.20;50.44
16793;BME280;8513;42.662;23.350;2022-08-01T04:22:34;94767.69;;;19.21;50.83
16793;BME280;8513;42.662;23.350;2022-08-01T04:25:02;94774.25;;;19.25;50.79
16793;BME280;8513;42.662;23.350;2022-08-01T04:27:31;94765.00;;;19.21;50.92
16793;BME280;8513;42.662;23.350;2022-08-01T04:29:59;94773.81;;;19.21;51.11
16793;BME280;8513;42.662;23.350;2022-08-01T04:32:28;94763.97;;;19.28;50.91
16793;BME280;8513;42.662;23.350;2022-08-01T04:34:56;94769.03;;;19.36;50.97
16793;BME280;8513;42.662;23.350;2022-08-01T04:37:25;94769.66;;;19.38;50.88
16793;BME280;8513;42.662;23.350;2022-08-01T04:39:52;94774.13;;;19.51;50.58
16793;BME280;8513;42.662;23.350;2022-08-01T04:42:19;94765.50;;;19.49;50.31
16793;BME280;8513;42.662;23.350;2022-08-01T04:44:45;94762.78;;;19.56;49.94
16793;BME280;8513;42.662;23.350;2022-08-01T04:47:11;94758.25;;;19.63;49.70
16793;BME280;8513;42.662;23.350;2022-08-01T04:49:37;94755.78;;;19.61;49.12
16793;BME280;8513;42.662;23.350;2022-08-01T04:52:03;94768.50;;;19.73;48.16
16793;BME280;8513;42.662;23.350;2022-08-01T04:54:30;94769.59;;;19.52;48.68
16793;BME280;8513;42.662;23.350;2022-08-01T04:56:58;94768.25;;;19.74;47.47
16793;BME280;8513;42.662;23.350;2022-08-01T04:59:27;94763.78;;;20.00;46.28
16793;BME280;8513;42.662;23.350;2022-08-01T05:02:05;94761.31;;;19.98;46.37
16793;BME280;8513;42.662;23.350;2022-08-01T05:04:31;94761.22;;;20.12;45.19
16793;BME280;8513;42.662;23.350;2022-08-01T05:06:57;94748.69;;;20.12;45.93
16793;BME280;8513;42.662;23.350;2022-08-01T05:09:22;94756.53;;;20.07;46.07
16793;BME280;8513;42.662;23.350;2022-08-01T05:11:47;94757.38;;;20.08;46.84
16793;BME280;8513;42.662;23.350;2022-08-01T05:14:13;94741.66;;;20.18;46.78
16793;BME280;8513;42.662;23.350;2022-08-01T05:16:38;94742.81;;;20.28;46.53
16793;BME280;8513;42.662;23.350;2022-08-01T05:19:04;94749.91;;;20.41;46.26
16793;BME280;8513;42.662;23.350;2022-08-01T05:21:29;94741.50;;;20.38;45.62
16793;BME280;8513;42.662;23.350;2022-08-01T05:23:55;94731.97;;;20.48;45.26
16793;BME280;8513;42.662;23.350;2022-08-01T05:26:20;94743.81;;;20.53;45.15
16793;BME280;8513;42.662;23.350;2022-08-01T05:28:46;94743.38;;;20.62;44.78
16793;BME280;8513;42.662;23.350;2022-08-01T05:31:11;94748.56;;;20.76;44.33
16793;BME280;8513;42.662;23.350;2022-08-01T05:33:36;94741.59;;;20.75;44.12
16793;BME280;8513;42.662;23.350;2022-08-01T05:36:02;94746.06;;;20.81;43.79
16793;BME280;8513;42.662;23.350;2022-08-01T05:38:27;94752.97;;;20.88;43.46
16793;BME280;8513;42.662;23.350;2022-08-01T05:40:53;94741.03;;;20.91;43.47
16793;BME280;8513;42.662;23.350;2022-08-01T05:43:18;94745.81;;;21.01;42.76
16793;BME280;8513;42.662;23.350;2022-08-01T05:45:45;94749.41;;;21.13;42.60
16793;BME280;8513;42.662;23.350;2022-08-01T05:48:11;94742.94;;;21.21;42.35
16793;BME280;8513;42.662;23.350;2022-08-01T05:50:36;94741.00;;;21.28;42.14
16793;BME280;8513;42.662;23.350;2022-08-01T05:53:02;94749.16;;;21.33;41.18
16793;BME280;8513;42.662;23.350;2022-08-01T05:55:28;94748.72;;;21.36;41.46
16793;BME280;8513;42.662;23.350;2022-08-01T05:57:53;94760.75;;;21.45;41.32
16793;BME280;8513;42.662;23.350;2022-08-01T06:00:18;94755.56;;;21.50;40.27
16793;BME280;8513;42.662;23.350;2022-08-01T06:02:44;94748.59;;;21.49;40.67
16793;BME280;8513;42.662;23.350;2022-08-01T06:05:10;94757.47;;;21.62;40.52
16793;BME280;8513;42.662;23.350;2022-08-01T06:07:36;94751.28;;;21.61;39.19
16793;BME280;8513;42.662;23.350;2022-08-01T06:10:02;94751.19;;;21.68;39.38
16793;BME280;8513;42.662;23.350;2022-08-01T06:12:27;94752.09;;;21.62;38.15
16793;BME280;8513;42.662;23.350;2022-08-01T06:14:53;94750.16;;;21.69;37.60
16793;BME280;8513;42.662;23.350;2022-08-01T06:17:18;94755.97;;;21.66;37.44
16793;BME280;8513;42.662;23.350;2022-08-01T06:19:43;94749.09;;;21.70;37.09
16793;BME280;8513;42.662;23.350;2022-08-01T06:22:09;94763.41;;;21.64;36.56
16793;BME280;8513;42.662;23.350;2022-08-01T06:24:34;94759.09;;;21.63;36.56
16793;BME280;8513;42.662;23.350;2022-08-01T06:27:00;94761.53;;;21.64;36.79
16793;BME280;8513;42.662;23.350;2022-08-01T06:29:26;94767.50;;;21.66;36.87
16793;BME280;8513;42.662;23.350;2022-08-01T06:31:52;94762.50;;;21.70;36.65
16793;BME280;8513;42.662;23.350;2022-08-01T06:34:17;94757.28;;;21.75;36.76
16793;BME280;8513;42.662;23.350;2022-08-01T06:36:43;94758.19;;;21.69;36.42
16793;BME280;8513;42.662;23.350;2022-08-01T06:39:08;94746.44;;;21.70;36.54
16793;BME280;8513;42.662;23.350;2022-08-01T06:41:33;94755.94;;;21.84;36.79
16793;BME280;8513;42.662;23.350;2022-08-01T06:43:59;94751.50;;;21.90;36.52
16793;BME280;8513;42.662;23.350;2022-08-01T06:46:27;94759.16;;;21.86;36.82
16793;BME280;8513;42.662;23.350;2022-08-01T06:48:52;94749.63;;;21.78;36.62
16793;BME280;8513;42.662;23.350;2022-08-01T06:51:18;94748.03;;;21.89;36.51
16793;BME280;8513;42.662;23.350;2022-08-01T06:53:45;94741.63;;;22.02;36.65
16793;BME280;8513;42.662;23.350;2022-08-01T06:56:11;94730.13;;;22.01;36.58
16793;BME280;8513;42.662;23.350;2022-08-01T06:58:36;94735.00;;;22.05;36.99
16793;BME280;8513;42.662;23.350;2022-08-01T07:01:03;94731.75;;;22.02;36.73
16793;BME280;8513;42.662;23.350;2022-08-01T07:03:31;94720.78;;;21.92;36.91
16793;BME280;8513;42.662;23.350;2022-08-01T07:05:57;94722.88;;;21.90;37.47
16793;BME280;8513;42.662;23.350;2022-08-01T07:08:22;94737.34;;;22.01;37.16
16793;BME280;8513;42.662;23.350;2022-08-01T07:10:48;94716.84;;;22.07;37.67
16793;BME280;8513;42.662;23.350;2022-08-01T07:13:13;94710.50;;;22.19;37.40
16793;BME280;8513;42.662;23.350;2022-08-01T07:15:41;94730.19;;;22.25;37.12
16793;BME280;8513;42.662;23.350;2022-08-01T07:18:06;94723.66;;;22.21;37.27
16793;BME280;8513;42.662;23.350;2022-08-01T07:20:32;94729.13;;;22.26;37.80
16793;BME280;8513;42.662;23.350;2022-08-01T07:22:57;94747.09;;;22.37;37.06
16793;BME280;8513;42.662;23.350;2022-08-01T07:25:23;94731.13;;;22.31;37.28
16793;BME280;8513;42.662;23.350;2022-08-01T07:27:48;94724.47;;;22.45;37.19
16793;BME280;8513;42.662;23.350;2022-08-01T07:30:14;94726.00;;;22.53;37.12
16793;BME280;8513;42.662;23.350;2022-08-01T07:32:39;94732.53;;;22.57;37.12
16793;BME280;8513;42.662;23.350;2022-08-01T07:35:05;94721.34;;;22.60;36.86
16793;BME280;8513;42.662;23.350;2022-08-01T07:37:31;94722.50;;;22.64;37.51
16793;BME280;8513;42.662;23.350;2022-08-01T07:39:56;94721.81;;;22.80;36.74
16793;BME280;8513;42.662;23.350;2022-08-01T07:42:22;94720.84;;;22.75;36.34
16793;BME280;8513;42.662;23.350;2022-08-01T07:44:47;94729.97;;;22.74;35.34
16793;BME280;8513;42.662;23.350;2022-08-01T07:47:13;94722.16;;;22.84;35.78
16793;BME280;8513;42.662;23.350;2022-08-01T07:49:38;94730.31;;;23.01;36.15
16793;BME280;8513;42.662;23.350;2022-08-01T07:52:04;94725.75;;;23.13;35.32
16793;BME280;8513;42.662;23.350;2022-08-01T07:54:31;94726.75;;;23.24;34.70
16793;BME280;8513;42.662;23.350;2022-08-01T07:56:56;94732.84;;;23.19;35.06
16793;BME280;8513;42.662;23.350;2022-08-01T07:59:22;94729.72;;;22.99;35.27
16793;BME280;8513;42.662;23.350;2022-08-01T08:01:49;94731.44;;;22.93;35.46
16793;BME280;8513;42.662;23.350;2022-08-01T08:04:16;94732.28;;;22.94;35.14
16793;BME280;8513;42.662;23.350;2022-08-01T08:06:42;94727.97;;;22.93;35.71
16793;BME280;8513;42.662;23.350;2022-08-01T08:09:08;94734.28;;;22.98;35.47
16793;BME280;8513;42.662;23.350;2022-08-01T08:11:33;94742.19;;;23.05;35.59
16793;BME280;8513;42.662;23.350;2022-08-01T08:13:59;94734.63;;;23.02;36.05
16793;BME280;8513;42.662;23.350;2022-08-01T08:16:24;94729.00;;;23.15;35.77
16793;BME280;8513;42.662;23.350;2022-08-01T08:18:50;94736.91;;;23.22;35.60
16793;BME280;8513;42.662;23.350;2022-08-01T08:21:15;94734.94;;;23.17;35.95
16793;BME280;8513;42.662;23.350;2022-08-01T08:23:40;94723.47;;;23.33;35.67
16793;BME280;8513;42.662;23.350;2022-08-01T08:26:24;94734.16;;;23.05;34.82
16793;BME280;8513;42.662;23.350;2022-08-01T08:28:50;94734.38;;;23.03;35.60
16793;BME280;8513;42.662;23.350;2022-08-01T08:31:16;94740.44;;;22.99;35.37
16793;BME280;8513;42.662;23.350;2022-08-01T08:33:41;94728.09;;;22.98;35.35
16793;BME280;8513;42.662;23.350;2022-08-01T08:36:06;94740.88;;;22.96;35.66
16793;BME280;8513;42.662;23.350;2022-08-01T08:38:32;94733.69;;;22.84;36.19
16793;BME280;8513;42.662;23.350;2022-08-01T08:40:57;94737.50;;;23.12;35.77
16793;BME280;8513;42.662;23.350;2022-08-01T08:43:25;94729.38;;;23.07;35.60
16793;BME280;8513;42.662;23.350;2022-08-01T08:45:51;94737.88;;;23.16;35.32
16793;BME280;8513;42.662;23.350;2022-08-01T08:48:17;94735.56;;;23.07;34.96
16793;BME280;8513;42.662;23.350;2022-08-01T08:50:43;94727.84;;;23.11;35.04
16793;BME280;8513;42.662;23.350;2022-08-01T08:53:11;94724.19;;;23.17;35.45
16793;BME280;8513;42.662;23.350;2022-08-01T08:55:39;94728.63;;;23.23;35.11
16793;BME280;8513;42.662;23.350;2022-08-01T08:58:12;94723.81;;;23.25;34.96
16793;BME280;8513;42.662;23.350;2022-08-01T09:00:41;94730.34;;;23.29;34.54
16793;BME280;8513;42.662;23.350;2022-08-01T09:03:07;94732.66;;;23.38;33.23
16793;BME280;8513;42.662;23.350;2022-08-01T09:05:32;94717.47;;;23.43;33.48
16793;BME280;8513;42.662;23.350;2022-08-01T09:07:58;94736.66;;;23.64;33.79
16793;BME280;8513;42.662;23.350;2022-08-01T09:10:23;94725.13;;;23.63;33.56
16793;BME280;8513;42.662;23.350;2022-08-01T09:13:21;94738.75;;;23.62;33.26
16793;BME280;8513;42.662;23.350;2022-08-01T09:15:51;94733.06;;;23.58;33.52
16793;BME280;8513;42.662;23.350;2022-08-01T09:23:52;94720.78;;;23.62;32.87
16793;BME280;8513;42.662;23.350;2022-08-01T09:26:20;94710.38;;;23.77;32.93
16793;BME280;8513;42.662;23.350;2022-08-01T09:28:47;94698.09;;;23.98;33.04
16793;BME280;8513;42.662;23.350;2022-08-01T09:31:15;94703.72;;;23.97;31.19
16793;BME280;8513;42.662;23.350;2022-08-01T09:33:55;94704.69;;;23.91;31.38
16793;BME280;8513;42.662;23.350;2022-08-01T09:36:23;94701.69;;;24.04;31.39
16793;BME280;8513;42.662;23.350;2022-08-01T09:38:50;94703.56;;;24.20;31.08
16793;BME280;8513;42.662;23.350;2022-08-01T09:41:17;94708.44;;;24.24;31.64
16793;BME280;8513;42.662;23.350;2022-08-01T09:43:53;94700.16;;;24.25;30.90
16793;BME280;8513;42.662;23.350;2022-08-01T09:46:18;94694.50;;;24.27;31.00
16793;BME280;8513;42.662;23.350;2022-08-01T09:49:00;94698.69;;;24.51;30.34
16793;BME280;8513;42.662;23.350;2022-08-01T09:51:34;94717.72;;;24.67;30.90
16793;BME280;8513;42.662;23.350;2022-08-01T09:54:02;94698.03;;;24.61;31.21
16793;BME280;8513;42.662;23.350;2022-08-01T09:56:40;94699.72;;;24.67;30.98
16793;BME280;8513;42.662;23.350;2022-08-01T09:59:11;94703.19;;;24.84;31.19
16793;BME280;8513;42.662;23.350;2022-08-01T10:01:48;94708.81;;;24.83;32.58
16793;BME280;8513;42.662;23.350;2022-08-01T10:04:16;94688.38;;;24.82;32.28
16793;BME280;8513;42.662;23.350;2022-08-01T10:06:44;94695.56;;;24.76;30.92
16793;BME280;8513;42.662;23.350;2022-08-01T10:09:12;94695.19;;;24.90;30.91
16793;BME280;8513;42.662;23.350;2022-08-01T10:11:40;94691.63;;;25.06;29.98
16793;BME280;8513;42.662;23.350;2022-08-01T10:14:06;94696.22;;;25.27;30.21
16793;BME280;8513;42.662;23.350;2022-08-01T10:16:37;94688.63;;;25.46;30.27
16793;BME280;8513;42.662;23.350;2022-08-01T10:19:06;94682.38;;;25.68;30.66
16793;BME280;8513;42.662;23.350;2022-08-01T10:21:33;94689.56;;;25.84;29.84
16793;BME280;8513;42.662;23.350;2022-08-01T10:24:01;94661.41;;;25.70;29.80
16793;BME280;8513;42.662;23.350;2022-08-01T10:26:29;94689.09;;;25.65;29.27
16793;BME280;8513;42.662;23.350;2022-08-01T10:28:57;94680.72;;;25.62;29.57
16793;BME280;8513;42.662;23.350;2022-08-01T10:31:23;94678.72;;;25.79;29.37
16793;BME280;8513;42.662;23.350;2022-08-01T10:33:50;94669.25;;;25.99;29.62
16793;BME280;8513;42.662;23.350;2022-08-01T10:36:18;94668.88;;;26.22;29.48
16793;BME280;8513;42.662;23.350;2022-08-01T10:38:45;94680.19;;;26.19;29.43
16793;BME280;8513;42.662;23.350;2022-08-01T10:41:12;94677.19;;;26.15;29.96
16793;BME280;8513;42.662;23.350;2022-08-01T10:43:40;94684.81;;;26.24;29.91
16793;BME280;8513;42.662;23.350;2022-08-01T10:46:06;94676.44;;;26.20;29.58
16793;BME280;8513;42.662;23.350;2022-08-01T10:48:44;94683.16;;;26.17;30.01
16793;BME280;8513;42.662;23.350;2022-08-01T10:51:12;94688.56;;;26.23;29.97
16793;BME280;8513;42.662;23.350;2022-08-01T10:53:46;94672.13;;;26.24;29.16
16793;BME280;8513;42.662;23.350;2022-08-01T10:56:11;94671.69;;;26.37;29.63
16793;BME280;8513;42.662;23.350;2022-08-01T10:58:38;94669.25;;;26.68;28.48
16793;BME280;8513;42.662;23.350;2022-08-01T11:04:07;94676.41;;;27.05;28.32
16793;BME280;8513;42.662;23.350;2022-08-01T11:12:15;94665.06;;;26.98;28.12
16793;BME280;8513;42.662;23.350;2022-08-01T11:17:36;94659.28;;;27.21;28.46
16793;BME280;8513;42.662;23.350;2022-08-01T11:20:12;94668.50;;;27.46;27.92
16793;BME280;8513;42.662;23.350;2022-08-01T11:30:45;94664.72;;;27.47;27.49
16793;BME280;8513;42.662;23.350;2022-08-01T11:33:12;94640.94;;;27.34;27.85
16793;BME280;8513;42.662;23.350;2022-08-01T11:38:36;94646.25;;;27.13;28.18
16793;BME280;8513;42.662;23.350;2022-08-01T11:41:11;94647.38;;;27.22;28.22
16793;BME280;8513;42.662;23.350;2022-08-01T11:44:15;94654.50;;;27.54;27.77
16793;BME280;8513;42.662;23.350;2022-08-01T11:52:04;94645.59;;;27.79;27.25
16793;BME280;8513;42.662;23.350;2022-08-01T11:54:33;94659.97;;;27.95;26.88
16793;BME280;8513;42.662;23.350;2022-08-01T11:57:06;94652.97;;;27.99;26.98
16793;BME280;8513;42.662;23.350;2022-08-01T11:59:39;94651.34;;;28.13;26.93
16793;BME280;8513;42.662;23.350;2022-08-01T12:02:15;94650.78;;;28.01;26.68
16793;BME280;8513;42.662;23.350;2022-08-01T12:04:49;94647.56;;;27.99;26.62
16793;BME280;8513;42.662;23.350;2022-08-01T12:07:16;94655.13;;;28.12;26.59
16793;BME280;8513;42.662;23.350;2022-08-01T12:09:42;94650.25;;;27.99;26.98
16793;BME280;8513;42.662;23.350;2022-08-01T12:12:09;94632.41;;;28.13;27.05
16793;BME280;8513;42.662;23.350;2022-08-01T12:14:35;94646.19;;;28.53;26.63
16793;BME280;8513;42.662;23.350;2022-08-01T12:17:00;94639.13;;;28.67;26.40
16793;BME280;8513;42.662;23.350;2022-08-01T12:19:25;94643.16;;;28.70;26.17
16793;BME280;8513;42.662;23.350;2022-08-01T12:22:14;94654.00;;;28.75;26.43
16793;BME280;8513;42.662;23.350;2022-08-01T12:24:41;94651.59;;;28.68;26.38
16793;BME280;8513;42.662;23.350;2022-08-01T12:27:09;94651.81;;;28.87;26.08
16793;BME280;8513;42.662;23.350;2022-08-01T12:29:38;94647.53;;;28.66;26.04
16793;BME280;8513;42.662;23.350;2022-08-01T12:32:20;94635.56;;;28.87;26.13
16793;BME280;8513;42.662;23.350;2022-08-01T12:34:45;94649.56;;;29.15;25.88
16793;BME280;8513;42.662;23.350;2022-08-01T12:37:11;94654.19;;;29.09;26.02
16793;BME280;8513;42.662;23.350;2022-08-01T12:39:38;94645.06;;;28.69;26.22
16793;BME280;8513;42.662;23.350;2022-08-01T12:42:07;94646.31;;;29.13;25.96
16793;BME280;8513;42.662;23.350;2022-08-01T12:44:33;94652.91;;;29.51;25.40
16793;BME280;8513;42.662;23.350;2022-08-01T12:47:00;94649.69;;;29.44;25.05
16793;BME280;8513;42.662;23.350;2022-08-01T12:49:26;94644.19;;;29.64;25.08
16793;BME280;8513;42.662;23.350;2022-08-01T12:51:53;94647.13;;;29.63;24.99
16793;BME280;8513;42.662;23.350;2022-08-01T12:54:19;94635.91;;;29.85;24.65
16793;BME280;8513;42.662;23.350;2022-08-01T12:56:45;94625.44;;;30.07;24.65
16793;BME280;8513;42.662;23.350;2022-08-01T12:59:27;94650.34;;;30.09;24.60
16793;BME280;8513;42.662;23.350;2022-08-01T13:01:54;94647.84;;;29.84;24.25
16793;BME280;8513;42.662;23.350;2022-08-01T13:04:21;94639.91;;;29.93;24.09
16793;BME280;8513;42.662;23.350;2022-08-01T13:06:48;94632.97;;;30.16;24.32
16793;BME280;8513;42.662;23.350;2022-08-01T13:09:18;94630.31;;;30.45;23.99
16793;BME280;8513;42.662;23.350;2022-08-01T13:11:43;94629.72;;;30.14;24.22
16793;BME280;8513;42.662;23.350;2022-08-01T13:14:09;94630.88;;;30.07;24.52
16793;BME280;8513;42.662;23.350;2022-08-01T13:16:47;94634.22;;;29.94;24.26
16793;BME280;8513;42.662;23.350;2022-08-01T13:19:13;94632.56;;;29.98;23.73
16793;BME280;8513;42.662;23.350;2022-08-01T13:21:39;94618.03;;;30.23;24.21
16793;BME280;8513;42.662;23.350;2022-08-01T13:24:12;94625.69;;;30.45;24.15
16793;BME280;8513;42.662;23.350;2022-08-01T13:29:12;94620.75;;;31.01;23.54
16793;BME280;8513;42.662;23.350;2022-08-01T13:31:38;94619.75;;;31.15;23.31
16793;BME280;8513;42.662;23.350;2022-08-01T13:34:04;94616.59;;;30.84;23.87
16793;BME280;8513;42.662;23.350;2022-08-01T13:36:30;94615.16;;;30.92;23.68
16793;BME280;8513;42.662;23.350;2022-08-01T13:38:57;94617.81;;;30.97;23.27
16793;BME280;8513;42.662;23.350;2022-08-01T13:41:41;94613.28;;;31.11;23.15
16793;BME280;8513;42.662;23.350;2022-08-01T13:44:07;94614.53;;;31.19;23.37
16793;BME280;8513;42.662;23.350;2022-08-01T13:46:34;94615.78;;;31.08;23.38
16793;BME280;8513;42.662;23.350;2022-08-01T13:49:01;94601.28;;;31.17;23.31
16793;BME280;8513;42.662;23.350;2022-08-01T13:51:27;94619.38;;;31.46;23.19